Time;durP1;ratioP1;P1;durP2;ratioP2;P2;SDS_P1;SDS_P2;PMS_P1;PMS_P2;Temp;Humidity;BMP_temperature;BMP_pressure;BME280_temperature;BME280_humidity;BME280_pressure;Samples;Min_cycle;Max_cycle;Signal;HPM_P1;HPM_P2
2020/12/27 00:00:41;;;;;;;12.50;7.63;;;-2.00;99.90;;;;;;4852576;29;20568;-88
2020/12/27 00:03:06;;;;;;;12.10;7.70;;;-1.90;99.90;;;;;;4850268;29;20191;-87
2020/12/27 00:05:34;;;;;;;15.63;7.83;;;-1.90;99.90;;;;;;4852604;29;20656;-87
2020/12/27 00:07:59;;;;;;;8.30;5.75;;;-1.90;99.90;;;;;;4851991;29;20197;-87
2020/12/27 00:10:25;;;;;;;6.20;4.67;;;-1.90;99.90;;;;;;4853725;29;20198;-88
2020/12/27 00:12:51;;;;;;;7.57;5.60;;;-1.90;99.90;;;;;;4851984;29;20645;-88
2020/12/27 00:15:16;;;;;;;8.87;4.90;;;-1.80;99.90;;;;;;4850430;29;20694;-88
2020/12/27 00:17:45;;;;;;;8.63;6.27;;;-1.80;99.90;;;;;;4849512;29;20277;-87
2020/12/27 00:20:11;;;;;;;6.15;4.80;;;-1.80;99.90;;;;;;4848877;29;20226;-88
2020/12/27 00:22:36;;;;;;;5.90;4.47;;;-1.90;99.90;;;;;;4850349;29;20660;-88
2020/12/27 00:25:03;;;;;;;7.60;5.07;;;-1.90;99.90;;;;;;4849507;29;20692;-88
2020/12/27 00:27:28;;;;;;;5.82;4.97;;;-2.00;99.90;;;;;;4853855;29;20194;-88
2020/12/27 00:29:54;;;;;;;6.00;4.80;;;-2.00;99.90;;;;;;4850077;29;22164;-88
2020/12/27 00:32:20;;;;;;;6.50;4.90;;;-2.00;99.90;;;;;;4853886;29;20195;-87
2020/12/27 00:34:45;;;;;;;6.97;4.47;;;-2.00;99.90;;;;;;4856374;29;20186;-87
2020/12/27 00:37:14;;;;;;;7.23;4.60;;;-2.10;99.90;;;;;;4854940;29;20825;-87
2020/12/27 00:39:39;;;;;;;4.90;4.40;;;-2.10;99.90;;;;;;4857473;29;20674;-88
2020/12/27 00:42:07;;;;;;;6.00;4.20;;;-2.20;99.90;;;;;;4856076;29;20450;-86
2020/12/27 00:44:33;;;;;;;5.90;4.00;;;-2.20;99.90;;;;;;4849302;29;20382;-85
2020/12/27 00:47:01;;;;;;;6.63;4.50;;;-2.10;99.90;;;;;;4851369;29;20249;-87
2020/12/27 00:49:26;;;;;;;5.75;4.70;;;-2.10;99.90;;;;;;4853096;29;20542;-87
2020/12/27 00:51:52;;;;;;;7.73;5.13;;;-2.00;99.90;;;;;;4854975;29;20196;-87
2020/12/27 00:54:17;;;;;;;8.97;5.50;;;-1.90;99.90;;;;;;4856026;29;20231;-87
2020/12/27 00:56:49;;;;;;;7.13;4.73;;;-1.90;99.90;;;;;;4854094;29;20234;-87
2020/12/27 00:59:15;;;;;;;5.35;4.82;;;-1.90;99.90;;;;;;4852717;29;20206;-88
2020/12/27 01:01:40;;;;;;;5.63;4.33;;;-1.90;99.90;;;;;;4853281;29;20206;-88
2020/12/27 01:04:06;;;;;;;6.30;4.57;;;-2.10;99.90;;;;;;4851319;29;20354;-88
2020/12/27 01:06:34;;;;;;;5.90;5.13;;;-2.10;99.90;;;;;;4863725;29;20206;-89
2020/12/27 01:09:00;;;;;;;6.35;5.00;;;-2.20;99.90;;;;;;4853464;29;20210;-89
2020/12/27 01:11:25;;;;;;;7.77;5.43;;;-2.30;99.90;;;;;;4851961;29;20225;-87
2020/12/27 01:13:51;;;;;;;8.90;6.03;;;-2.30;99.90;;;;;;4852426;29;20186;-88
2020/12/27 01:16:21;;;;;;;7.30;5.07;;;-2.20;99.90;;;;;;4852114;29;20592;-88
2020/12/27 01:18:47;;;;;;;7.88;6.13;;;-2.10;99.90;;;;;;4855864;29;20225;-87
2020/12/27 01:21:32;;;;;;;9.80;6.38;;;-2.10;99.90;;;;;;4867090;29;20191;-88
2020/12/27 01:23:58;;;;;;;8.65;5.65;;;-2.10;99.90;;;;;;4851656;29;20245;-88
2020/12/27 01:26:29;;;;;;;7.55;5.40;;;-2.00;99.90;;;;;;4851294;29;20253;-87
2020/12/27 01:28:55;;;;;;;8.48;6.00;;;-2.00;99.90;;;;;;4857072;29;20191;-87
2020/12/27 01:31:22;;;;;;;10.50;6.10;;;-2.00;99.90;;;;;;4850452;29;20202;-87
2020/12/27 01:33:48;;;;;;;7.43;5.30;;;-2.00;99.90;;;;;;4854607;29;20200;-87
2020/12/27 01:36:14;;;;;;;6.18;5.10;;;-2.10;99.90;;;;;;4857406;29;20505;-85
2020/12/27 01:38:39;;;;;;;7.27;4.80;;;-2.00;99.90;;;;;;4852289;29;20233;-87
2020/12/27 01:41:05;;;;;;;8.57;5.90;;;-2.00;99.90;;;;;;4849377;29;20222;-87
2020/12/27 01:43:33;;;;;;;8.00;5.80;;;-2.00;99.90;;;;;;4852943;29;20625;-86
2020/12/27 01:45:58;;;;;;;7.93;5.63;;;-2.00;99.90;;;;;;4858331;29;20198;-87
2020/12/27 01:48:24;;;;;;;8.03;6.33;;;-2.00;99.90;;;;;;4851231;29;20377;-87
2020/12/27 01:50:51;;;;;;;6.75;5.78;;;-2.00;99.90;;;;;;4853896;29;20194;-87
2020/12/27 01:53:17;;;;;;;6.07;5.00;;;-2.00;99.90;;;;;;4852564;29;20207;-87
2020/12/27 01:55:42;;;;;;;7.63;5.37;;;-2.00;99.90;;;;;;4871137;29;20716;-87
2020/12/27 01:58:15;;;;;;;7.70;6.37;;;-2.00;99.90;;;;;;4850583;29;20246;-86
2020/12/27 02:00:42;;;;;;;6.18;5.47;;;-2.00;99.90;;;;;;4855207;29;20243;-86
2020/12/27 02:03:09;;;;;;;8.02;5.60;;;-2.00;99.90;;;;;;4853481;29;20182;-86
2020/12/27 02:05:35;;;;;;;7.82;5.55;;;-2.10;99.90;;;;;;4853899;29;20558;-86
2020/12/27 02:08:01;;;;;;;10.20;6.20;;;-2.20;99.90;;;;;;4850567;29;20185;-87
2020/12/27 02:10:28;;;;;;;7.93;5.83;;;-2.30;99.90;;;;;;4851150;29;20206;-86
2020/12/27 02:12:53;;;;;;;10.23;6.90;;;-2.30;99.90;;;;;;4854841;29;20512;-87
2020/12/27 02:15:19;;;;;;;8.73;5.83;;;-2.30;99.90;;;;;;4852222;29;20191;-88
2020/12/27 02:17:45;;;;;;;7.50;5.77;;;-2.30;99.90;;;;;;4847551;29;20323;-87
2020/12/27 02:20:11;;;;;;;6.00;5.23;;;-2.20;99.90;;;;;;4852911;29;20186;-87
2020/12/27 02:22:38;;;;;;;9.33;6.00;;;-2.30;99.90;;;;;;4854010;29;20621;-87
2020/12/27 02:25:04;;;;;;;10.55;5.80;;;-2.30;99.90;;;;;;4855254;29;20463;-88
2020/12/27 02:27:33;;;;;;;8.27;6.33;;;-2.30;99.90;;;;;;4849234;29;20198;-88
2020/12/27 02:29:59;;;;;;;9.38;6.70;;;-2.30;99.90;;;;;;4855517;29;20612;-88
2020/12/27 02:32:24;;;;;;;7.77;5.67;;;-2.30;99.90;;;;;;4850674;29;20190;-87
2020/12/27 02:34:50;;;;;;;8.40;5.93;;;-2.40;99.90;;;;;;4852319;29;20969;-87
2020/12/27 02:37:16;;;;;;;6.60;5.53;;;-2.30;99.90;;;;;;4850697;29;20194;-87
2020/12/27 02:39:42;;;;;;;7.37;5.40;;;-2.30;99.90;;;;;;4855889;29;20921;-88
2020/12/27 02:42:07;;;;;;;8.30;6.13;;;-2.30;99.90;;;;;;4850076;29;20474;-87
2020/12/27 02:44:40;;;;;;;7.50;4.83;;;-2.30;99.90;;;;;;4851433;29;20225;-87
2020/12/27 02:47:06;;;;;;;8.23;5.45;;;-2.30;99.90;;;;;;4851890;29;20216;-88
2020/12/27 02:49:32;;;;;;;5.60;4.70;;;-2.30;99.90;;;;;;4849308;29;20210;-88
2020/12/27 02:51:57;;;;;;;7.20;5.37;;;-2.30;99.90;;;;;;4854442;29;20186;-88
2020/12/27 02:54:23;;;;;;;6.27;4.83;;;-2.30;99.90;;;;;;4854025;29;20745;-87
2020/12/27 02:56:49;;;;;;;8.43;5.10;;;-2.20;99.90;;;;;;4851304;29;20209;-88
2020/12/27 02:59:14;;;;;;;8.20;5.10;;;-2.10;99.90;;;;;;4849712;29;20194;-88
2020/12/27 03:01:40;;;;;;;5.70;4.07;;;-2.20;99.90;;;;;;4849801;29;20218;-88
2020/12/27 03:04:06;;;;;;;7.23;4.73;;;-2.20;99.90;;;;;;4854852;29;20500;-88
2020/12/27 03:06:31;;;;;;;7.53;5.07;;;-2.20;99.90;;;;;;4851329;29;20269;-88
2020/12/27 03:08:57;;;;;;;6.60;4.67;;;-2.20;99.90;;;;;;4856190;29;20193;-88
2020/12/27 03:11:26;;;;;;;5.97;4.80;;;-2.20;99.90;;;;;;4850934;29;20200;-88
2020/12/27 03:13:53;;;;;;;6.57;4.40;;;-2.20;99.90;;;;;;4852376;29;20205;-88
2020/12/27 03:16:19;;;;;;;5.75;4.40;;;-2.20;99.90;;;;;;4849511;29;20201;-88
2020/12/27 03:18:45;;;;;;;5.32;4.50;;;-2.10;99.90;;;;;;4865595;29;20203;-87
2020/12/27 03:21:11;;;;;;;5.57;4.13;;;-2.20;99.90;;;;;;4850126;29;20189;-88
2020/12/27 03:23:37;;;;;;;7.00;4.63;;;-2.20;99.90;;;;;;4850367;29;20837;-87
2020/12/27 03:26:02;;;;;;;7.10;4.30;;;-2.20;99.90;;;;;;4850473;29;20233;-87
2020/12/27 03:28:28;;;;;;;8.20;4.73;;;-2.20;99.90;;;;;;4852403;29;20205;-87
2020/12/27 03:30:54;;;;;;;6.40;4.60;;;-2.20;99.90;;;;;;4850935;29;20276;-86
2020/12/27 03:33:19;;;;;;;7.70;5.30;;;-2.20;99.90;;;;;;4852750;29;20209;-87
2020/12/27 03:35:45;;;;;;;5.97;4.87;;;-2.30;99.90;;;;;;4850647;29;20545;-86
2020/12/27 03:38:13;;;;;;;8.20;5.27;;;-2.20;99.90;;;;;;4850367;29;20191;-86
2020/12/27 03:40:38;;;;;;;11.23;5.30;;;-2.30;99.90;;;;;;4850164;29;20590;-85
2020/12/27 03:43:04;;;;;;;7.93;5.57;;;-2.30;99.90;;;;;;4854869;29;20193;-87
2020/12/27 03:45:30;;;;;;;8.47;5.50;;;-2.40;99.90;;;;;;4852511;29;20298;-88
2020/12/27 03:47:55;;;;;;;7.30;5.67;;;-2.40;99.90;;;;;;4851298;29;20280;-88
2020/12/27 03:50:23;;;;;;;7.30;5.50;;;-2.50;99.90;;;;;;4850303;29;20274;-88
2020/12/27 03:52:48;;;;;;;7.93;5.68;;;-2.50;99.90;;;;;;4850358;29;20193;-88
2020/12/27 03:55:14;;;;;;;8.00;5.33;;;-2.50;99.90;;;;;;4853216;29;20269;-88
2020/12/27 03:57:40;;;;;;;6.77;4.80;;;-2.50;99.90;;;;;;4850158;29;20213;-88
2020/12/27 04:00:05;;;;;;;8.67;5.40;;;-2.40;99.90;;;;;;4852315;29;21000;-88
2020/12/27 04:02:31;;;;;;;7.37;5.50;;;-2.40;99.90;;;;;;4849973;29;20606;-90
2020/12/27 04:04:57;;;;;;;7.37;5.07;;;-2.40;99.90;;;;;;4854587;29;20692;-87
2020/12/27 04:07:23;;;;;;;11.23;5.53;;;-2.40;99.90;;;;;;4851346;29;20193;-88
2020/12/27 04:09:49;;;;;;;8.10;5.38;;;-2.40;99.90;;;;;;4852651;29;20219;-88
2020/12/27 04:12:14;;;;;;;6.87;5.17;;;-2.40;99.90;;;;;;4854884;29;20250;-88
2020/12/27 04:14:40;;;;;;;5.97;4.90;;;-2.40;99.90;;;;;;4857110;29;20279;-88
2020/12/27 04:17:06;;;;;;;6.50;4.70;;;-2.50;99.90;;;;;;4854200;29;20229;-89
2020/12/27 04:19:32;;;;;;;6.18;4.78;;;-2.40;99.90;;;;;;4854497;29;20287;-89
2020/12/27 04:21:57;;;;;;;8.37;4.80;;;-2.40;99.90;;;;;;4857958;29;20285;-90
2020/12/27 04:24:23;;;;;;;5.10;4.60;;;-2.40;99.90;;;;;;4858173;29;20720;-89
2020/12/27 04:26:49;;;;;;;5.87;4.83;;;-2.30;99.90;;;;;;4855435;29;20637;-88
2020/12/27 04:29:14;;;;;;;4.73;4.20;;;-2.40;99.90;;;;;;4855184;29;20202;-86
2020/12/27 04:31:40;;;;;;;7.10;4.63;;;-2.40;99.90;;;;;;4854915;29;20186;-87
2020/12/27 04:34:06;;;;;;;8.57;4.90;;;-2.30;99.90;;;;;;4854897;29;20257;-87
2020/12/27 04:36:31;;;;;;;7.90;4.60;;;-2.30;99.90;;;;;;4856444;29;20199;-86
2020/12/27 04:38:58;;;;;;;5.80;4.97;;;-2.30;99.90;;;;;;4858281;29;20301;-87
2020/12/27 04:41:24;;;;;;;9.40;4.18;;;-2.40;99.90;;;;;;4853549;29;20198;-88
2020/12/27 04:43:51;;;;;;;7.82;5.75;;;-2.40;99.90;;;;;;4853373;29;20221;-88
2020/12/27 04:46:17;;;;;;;5.53;4.82;;;-2.40;99.90;;;;;;4853357;29;20560;-88
2020/12/27 04:48:45;;;;;;;7.07;5.17;;;-2.40;99.90;;;;;;4852139;29;20190;-88
2020/12/27 04:51:12;;;;;;;6.22;5.20;;;-2.40;99.90;;;;;;4854253;29;20527;-88
2020/12/27 04:53:39;;;;;;;6.93;4.70;;;-2.40;99.90;;;;;;4854461;29;20289;-87
2020/12/27 04:56:07;;;;;;;7.80;5.32;;;-2.40;99.90;;;;;;4851825;29;20199;-88
2020/12/27 04:58:33;;;;;;;6.45;4.95;;;-2.40;99.90;;;;;;4857616;29;20209;-88
2020/12/27 05:01:00;;;;;;;5.18;4.70;;;-2.40;99.90;;;;;;4853237;29;20361;-88
2020/12/27 05:03:26;;;;;;;8.10;5.40;;;-2.30;99.90;;;;;;4853639;29;20201;-87
2020/12/27 05:05:53;;;;;;;6.93;5.05;;;-2.30;99.90;;;;;;4853728;29;20850;-87
2020/12/27 05:08:19;;;;;;;7.05;4.32;;;-2.30;99.90;;;;;;4853343;29;20668;-87
2020/12/27 05:10:45;;;;;;;5.82;4.53;;;-2.30;99.90;;;;;;4853944;29;20209;-88
2020/12/27 05:13:11;;;;;;;6.70;5.30;;;-2.40;99.90;;;;;;4856481;29;20913;-87
2020/12/27 05:15:40;;;;;;;7.20;5.43;;;-2.40;99.90;;;;;;4852475;29;20233;-88
2020/12/27 05:18:07;;;;;;;5.57;5.07;;;-2.40;99.90;;;;;;4854459;29;20197;-87
2020/12/27 05:20:34;;;;;;;6.63;5.18;;;-2.40;99.90;;;;;;4856082;29;20269;-88
2020/12/27 05:23:03;;;;;;;7.22;4.90;;;-2.40;99.90;;;;;;4854322;29;20250;-89
2020/12/27 05:25:30;;;;;;;5.90;4.80;;;-2.40;99.90;;;;;;4849364;29;20639;-88
2020/12/27 05:28:00;;;;;;;6.53;5.43;;;-2.40;99.90;;;;;;4855352;29;20193;-87
2020/12/27 05:30:27;;;;;;;7.70;5.20;;;-2.50;99.90;;;;;;4855112;29;20289;-88
2020/12/27 05:32:53;;;;;;;7.63;5.05;;;-2.50;99.90;;;;;;4853729;29;20248;-88
2020/12/27 05:35:19;;;;;;;6.78;5.47;;;-2.50;99.90;;;;;;4852719;29;20222;-88
2020/12/27 05:37:46;;;;;;;7.53;4.83;;;-2.50;99.90;;;;;;4856059;29;20667;-87
2020/12/27 05:40:13;;;;;;;7.95;5.50;;;-2.50;99.90;;;;;;4856055;29;20809;-88
2020/12/27 05:42:39;;;;;;;7.45;5.00;;;-2.50;99.90;;;;;;4853052;29;20190;-87
2020/12/27 05:45:16;;;;;;;8.70;5.15;;;-2.50;99.90;;;;;;4858123;29;20222;-88
2020/12/27 05:47:43;;;;;;;6.20;5.15;;;-2.50;99.90;;;;;;4856134;29;20281;-88
2020/12/27 05:50:14;;;;;;;6.20;4.97;;;-2.40;99.90;;;;;;4852229;29;20233;-89
2020/12/27 05:52:48;;;;;;;11.73;5.93;;;-2.40;99.90;;;;;;4856916;29;20190;-88
2020/12/27 05:55:23;;;;;;;8.70;6.72;;;-2.50;99.90;;;;;;4856641;29;20539;-89
2020/12/27 05:57:54;;;;;;;7.30;5.28;;;-2.40;99.90;;;;;;4849406;29;20714;-88
2020/12/27 06:00:22;;;;;;;6.95;5.47;;;-2.50;99.90;;;;;;4851372;29;20218;-89
2020/12/27 06:02:59;;;;;;;6.40;5.30;;;-2.40;99.90;;;;;;4854926;29;20295;-89
2020/12/27 06:05:48;;;;;;;7.55;5.82;;;-2.50;99.90;;;;;;4855701;29;20325;-88
2020/12/27 06:08:43;;;;;;;8.10;6.00;;;-2.50;99.90;;;;;;4852684;29;20202;-87
2020/12/27 06:11:23;;;;;;;7.60;5.57;;;-2.40;99.90;;;;;;4869055;29;20291;-88
2020/12/27 06:14:07;;;;;;;7.35;5.85;;;-2.40;99.90;;;;;;4853593;29;20205;-88
2020/12/27 06:16:54;;;;;;;5.57;4.55;;;-2.40;99.90;;;;;;4855132;29;20284;-88
2020/12/27 06:19:26;;;;;;;9.23;6.07;;;-2.40;99.90;;;;;;4871630;29;20201;-88
2020/12/27 06:22:07;;;;;;;8.57;5.43;;;-2.30;99.90;;;;;;4849689;29;20430;-88
2020/12/27 06:24:34;;;;;;;8.15;5.55;;;-2.30;99.90;;;;;;4850550;29;20220;-87
2020/12/27 06:27:01;;;;;;;8.77;5.93;;;-2.40;99.90;;;;;;4851414;29;20553;-87
2020/12/27 06:29:55;;;;;;;9.10;6.25;;;-2.40;99.90;;;;;;4852046;29;20209;-87
2020/12/27 06:32:24;;;;;;;8.18;5.65;;;-2.40;99.90;;;;;;4826102;29;20225;-87
2020/12/27 06:34:50;;;;;;;6.85;6.05;;;-2.40;99.90;;;;;;4851912;29;20232;-87
2020/12/27 06:37:17;;;;;;;8.20;5.95;;;-2.40;99.90;;;;;;4851549;29;20205;-88
2020/12/27 06:39:45;;;;;;;6.90;6.20;;;-2.40;99.90;;;;;;4853242;29;20553;-88
2020/12/27 06:42:16;;;;;;;7.00;6.22;;;-2.40;99.90;;;;;;4852601;29;20179;-88
2020/12/27 06:44:45;;;;;;;9.05;6.53;;;-2.40;99.90;;;;;;4852881;29;20558;-88
2020/12/27 06:47:12;;;;;;;10.50;7.10;;;-2.50;99.90;;;;;;4851967;29;20194;-86
2020/12/27 06:49:38;;;;;;;8.55;6.20;;;-2.50;99.90;;;;;;4853449;29;20529;-86
2020/12/27 06:52:20;;;;;;;8.02;6.20;;;-2.50;99.90;;;;;;4851030;29;20185;-86
2020/12/27 06:54:48;;;;;;;10.52;6.90;;;-2.40;99.90;;;;;;4853526;29;20226;-88
2020/12/27 06:57:49;;;;;;;9.75;6.63;;;-2.40;99.90;;;;;;4852462;29;20197;-88
2020/12/27 07:00:29;;;;;;;12.68;6.60;;;-2.40;99.90;;;;;;4850806;29;20563;-88
2020/12/27 07:03:21;;;;;;;13.27;5.90;;;-2.50;99.90;;;;;;4852264;29;20623;-88
2020/12/27 07:05:49;;;;;;;8.40;5.10;;;-2.50;99.90;;;;;;4842378;29;20245;-89
2020/12/27 07:08:35;;;;;;;10.23;6.25;;;-2.50;99.90;;;;;;4849874;29;20306;-88
2020/12/27 07:11:01;;;;;;;7.50;5.90;;;-2.50;99.90;;;;;;4851041;29;20202;-89
2020/12/27 07:13:27;;;;;;;7.90;5.65;;;-2.40;99.90;;;;;;4853477;29;20213;-89
2020/12/27 07:15:55;;;;;;;9.00;6.83;;;-2.40;99.90;;;;;;4850858;29;20223;-88
2020/12/27 07:18:21;;;;;;;9.02;6.00;;;-2.40;99.90;;;;;;4855193;29;20191;-88
2020/12/27 07:20:59;;;;;;;7.93;5.88;;;-2.40;99.90;;;;;;4852087;29;20232;-88
2020/12/27 07:23:29;;;;;;;8.10;5.65;;;-2.40;99.90;;;;;;4856018;29;20201;-88
2020/12/27 07:26:00;;;;;;;8.90;6.05;;;-2.40;99.90;;;;;;4850136;29;20644;-88
2020/12/27 07:28:37;;;;;;;8.18;5.90;;;-2.30;99.90;;;;;;4853706;29;20217;-87
2020/12/27 07:31:04;;;;;;;9.50;6.15;;;-2.30;99.90;;;;;;4864624;29;20279;-88
2020/12/27 07:33:36;;;;;;;11.10;5.40;;;-2.30;99.90;;;;;;4851990;29;20221;-87
2020/12/27 07:36:07;;;;;;;6.22;5.40;;;-2.20;99.90;;;;;;4852153;29;20193;-87
2020/12/27 07:38:51;;;;;;;8.20;5.78;;;-2.20;99.90;;;;;;4851943;29;20668;-87
2020/12/27 07:41:27;;;;;;;6.00;5.40;;;-2.00;99.90;;;;;;4863316;29;20649;-87
2020/12/27 07:43:54;;;;;;;5.20;4.60;;;-1.90;99.90;;;;;;4849317;29;20208;-86
2020/12/27 07:46:20;;;;;;;7.30;5.10;;;-1.90;99.90;;;;;;4853498;29;20330;-86
2020/12/27 07:48:50;;;;;;;6.03;4.40;;;-1.90;99.90;;;;;;4854613;29;20205;-87
2020/12/27 07:51:17;;;;;;;6.75;4.95;;;-1.80;99.90;;;;;;4851848;29;20189;-87
2020/12/27 07:53:50;;;;;;;5.88;4.97;;;-1.70;99.90;;;;;;4853868;29;20228;-87
2020/12/27 07:56:20;;;;;;;6.97;5.63;;;-1.70;99.90;;;;;;4849554;29;20688;-88
2020/12/27 07:58:54;;;;;;;8.02;5.13;;;-1.70;99.90;;;;;;4849776;29;20651;-89
2020/12/27 08:01:29;;;;;;;5.88;4.93;;;-1.60;99.90;;;;;;4851091;29;20833;-87
2020/12/27 08:04:02;;;;;;;7.55;4.93;;;-1.60;99.90;;;;;;4850635;29;20190;-88
2020/12/27 08:06:30;;;;;;;5.80;5.25;;;-1.50;99.90;;;;;;4849747;29;20696;-88
2020/12/27 08:09:10;;;;;;;9.18;6.15;;;-1.50;99.90;;;;;;4847274;29;20226;-87
2020/12/27 08:11:42;;;;;;;7.18;5.95;;;-1.50;99.90;;;;;;4852795;29;20339;-88
2020/12/27 08:14:12;;;;;;;9.32;6.57;;;-1.50;99.90;;;;;;4850352;29;21156;-89
2020/12/27 08:16:42;;;;;;;8.45;6.70;;;-1.50;99.90;;;;;;4850704;29;20190;-89
2020/12/27 08:19:13;;;;;;;7.38;5.97;;;-1.30;99.90;;;;;;4849524;29;20333;-88
2020/12/27 08:21:44;;;;;;;9.23;7.57;;;-1.20;99.90;;;;;;4846672;29;20197;-86
2020/12/27 08:24:11;;;;;;;7.90;5.68;;;-1.20;99.90;;;;;;4850382;29;20190;-88
2020/12/27 08:26:39;;;;;;;7.95;6.32;;;-1.10;99.90;;;;;;4850115;29;20214;-88
2020/12/27 08:29:17;;;;;;;7.68;6.10;;;-1.10;99.90;;;;;;4848894;29;20190;-87
2020/12/27 08:31:45;;;;;;;6.97;5.95;;;-1.10;99.90;;;;;;4850263;29;20190;-90
2020/12/27 08:34:16;;;;;;;11.00;6.87;;;-0.90;99.90;;;;;;4849851;29;20221;-93
2020/12/27 08:36:53;;;;;;;8.97;6.70;;;-0.80;99.90;;;;;;4856116;29;20502;-94
2020/12/27 08:39:50;;;;;;;8.40;7.10;;;-0.70;99.90;;;;;;4863451;29;20451;-96
2020/12/27 08:42:19;;;;;;;8.60;6.70;;;-0.60;99.90;;;;;;4862568;29;20447;-95
2020/12/27 08:45:20;;;;;;;8.60;5.90;;;-0.60;99.90;;;;;;4860512;29;20554;-96
2020/12/27 08:48:13;;;;;;;7.90;5.80;;;-0.50;99.90;;;;;;4870134;29;20453;-95
2020/12/27 08:50:50;;;;;;;8.20;6.20;;;-0.40;99.90;;;;;;5029622;24;20501;-96
2020/12/27 08:53:16;;;;;;;9.67;6.40;;;-0.30;99.90;;;;;;4887125;29;20485;-96
2020/12/27 09:01:26;;;;;;;9.60;6.90;;;-0.30;99.90;;;;;;4913619;23;20496;-96
2020/12/27 09:03:54;;;;;;;10.57;6.70;;;-0.20;99.90;;;;;;4865039;29;21005;-96
2020/12/27 09:06:22;;;;;;;10.07;6.67;;;-0.10;99.90;;;;;;4878027;29;20474;-93
2020/12/27 09:08:57;;;;;;;9.30;7.00;;;0.00;99.90;;;;;;4853011;29;20444;-95
2020/12/27 09:11:23;;;;;;;10.90;6.40;;;0.00;99.90;;;;;;4860422;29;20819;-96
2020/12/27 09:13:48;;;;;;;10.67;6.30;;;-0.10;99.90;;;;;;4851291;29;20447;-91
2020/12/27 09:16:28;;;;;;;10.40;6.47;;;-0.10;99.90;;;;;;4852779;29;20234;-92
2020/12/27 09:18:54;;;;;;;9.97;7.27;;;-0.10;99.90;;;;;;4837186;29;20402;-91
2020/12/27 09:21:20;;;;;;;8.57;6.33;;;0.00;99.90;;;;;;4852995;29;20454;-92
2020/12/27 09:23:46;;;;;;;8.27;6.17;;;0.10;99.90;;;;;;4833728;29;20222;-91
2020/12/27 09:26:15;;;;;;;8.80;6.30;;;0.20;99.90;;;;;;4851610;29;20447;-93
2020/12/27 09:28:41;;;;;;;8.50;6.23;;;0.30;99.90;;;;;;4852451;29;20187;-93
2020/12/27 09:31:12;;;;;;;8.27;6.10;;;0.30;99.90;;;;;;4846701;29;20502;-93
2020/12/27 09:33:44;;;;;;;9.63;7.47;;;0.20;99.90;;;;;;4848080;29;20462;-91
2020/12/27 09:36:11;;;;;;;9.30;7.00;;;0.30;99.90;;;;;;4847494;29;20455;-91
2020/12/27 09:38:39;;;;;;;8.23;5.87;;;0.20;99.90;;;;;;4851879;29;20450;-87
2020/12/27 09:41:16;;;;;;;9.17;6.97;;;0.30;99.90;;;;;;4852831;29;20470;-95
2020/12/27 09:44:05;;;;;;;8.20;6.03;;;0.40;99.90;;;;;;4852758;29;20486;-95
2020/12/27 09:46:47;;;;;;;10.87;7.33;;;0.40;99.90;;;;;;4850797;29;20802;-90
2020/12/27 09:49:19;;;;;;;7.63;5.90;;;0.40;99.90;;;;;;4849212;29;20479;-94
2020/12/27 09:51:45;;;;;;;8.90;5.90;;;0.40;99.90;;;;;;4855258;29;20444;-94
2020/12/27 09:54:36;;;;;;;41.20;27.90;;;0.30;99.90;;;;;;4848646;29;20772;-94
2020/12/27 09:57:14;;;;;;;13.77;6.27;;;0.40;99.90;;;;;;4845870;29;20447;-93
2020/12/27 09:59:41;;;;;;;5.90;5.30;;;0.50;99.90;;;;;;4852211;29;20468;-93
2020/12/27 10:02:07;;;;;;;8.57;6.80;;;0.70;99.90;;;;;;4841934;29;20454;-87
2020/12/27 10:04:33;;;;;;;6.47;5.77;;;0.90;99.90;;;;;;4838842;29;21014;-87
2020/12/27 10:06:59;;;;;;;7.50;6.17;;;1.00;99.90;;;;;;4839864;29;20930;-87
2020/12/27 10:09:24;;;;;;;7.97;6.10;;;1.10;99.90;;;;;;4845795;29;20540;-85
2020/12/27 10:11:50;;;;;;;8.40;6.00;;;1.10;99.90;;;;;;4844519;29;20248;-86
2020/12/27 10:14:17;;;;;;;9.83;6.17;;;1.00;99.90;;;;;;4845413;29;20193;-85
2020/12/27 10:16:42;;;;;;;10.83;6.37;;;1.00;99.90;;;;;;4845252;29;20465;-86
2020/12/27 10:19:08;;;;;;;7.40;6.27;;;0.90;99.90;;;;;;4845365;29;20529;-86
2020/12/27 10:21:34;;;;;;;8.00;5.80;;;0.90;99.90;;;;;;4845642;29;20297;-86
2020/12/27 10:23:59;;;;;;;11.83;6.07;;;1.00;99.90;;;;;;4844309;29;20281;-86
2020/12/27 10:26:25;;;;;;;11.93;7.40;;;1.00;99.90;;;;;;4840655;29;20684;-86
2020/12/27 10:28:50;;;;;;;9.07;6.63;;;0.90;99.90;;;;;;4844529;29;20186;-84
2020/12/27 10:31:17;;;;;;;9.80;7.30;;;1.00;99.90;;;;;;4840148;29;20197;-85
2020/12/27 10:33:43;;;;;;;11.70;6.70;;;1.10;99.90;;;;;;4845879;29;20191;-86
2020/12/27 10:36:08;;;;;;;9.33;5.70;;;1.10;99.90;;;;;;4844511;29;20530;-85
2020/12/27 10:38:34;;;;;;;10.20;7.87;;;1.20;99.90;;;;;;4838267;29;21042;-86
2020/12/27 10:41:00;;;;;;;8.80;7.13;;;1.30;99.90;;;;;;4836510;29;20202;-85
2020/12/27 10:43:26;;;;;;;18.23;7.10;;;1.40;99.90;;;;;;4839017;29;20302;-86
2020/12/27 10:46:01;;;;;;;9.77;6.60;;;1.30;99.90;;;;;;4837235;29;20500;-85
2020/12/27 10:48:27;;;;;;;7.80;5.90;;;1.30;99.90;;;;;;4839288;29;21002;-86
2020/12/27 10:50:53;;;;;;;7.23;5.77;;;1.30;99.90;;;;;;4841577;29;20470;-88
2020/12/27 10:53:19;;;;;;;11.07;7.50;;;1.40;99.90;;;;;;4840373;29;20190;-85
2020/12/27 10:55:49;;;;;;;11.13;7.63;;;1.40;99.90;;;;;;4841546;29;21336;-86
2020/12/27 10:58:14;;;;;;;9.30;8.00;;;1.30;99.90;;;;;;4839896;29;20443;-86
2020/12/27 11:00:40;;;;;;;13.20;9.23;;;1.30;99.90;;;;;;4847281;29;20475;-85
2020/12/27 11:03:06;;;;;;;10.33;8.07;;;1.30;99.90;;;;;;4841836;29;20730;-85
2020/12/27 11:05:32;;;;;;;12.67;8.50;;;1.40;99.90;;;;;;4842986;29;21297;-85
2020/12/27 11:07:58;;;;;;;8.67;6.70;;;1.60;99.90;;;;;;4842992;29;20237;-85
2020/12/27 11:10:33;;;;;;;12.13;6.90;;;1.60;99.90;;;;;;4842183;29;20451;-85
2020/12/27 11:12:59;;;;;;;9.03;6.83;;;1.70;99.90;;;;;;4843243;29;20345;-85
2020/12/27 11:15:25;;;;;;;8.80;7.27;;;1.70;99.90;;;;;;4843307;29;21671;-85
2020/12/27 11:17:50;;;;;;;10.30;6.83;;;1.60;99.90;;;;;;4839152;29;20226;-85
2020/12/27 11:20:16;;;;;;;6.93;5.97;;;1.50;99.90;;;;;;4840983;29;20221;-84
2020/12/27 11:22:42;;;;;;;6.03;5.30;;;1.60;99.90;;;;;;4842424;29;20198;-84
2020/12/27 11:25:08;;;;;;;6.23;5.60;;;1.70;99.90;;;;;;4843042;29;20602;-84
2020/12/27 11:27:34;;;;;;;6.40;4.83;;;1.70;99.90;;;;;;4840257;29;20210;-93
2020/12/27 11:30:07;;;;;;;9.60;6.27;;;1.70;99.90;;;;;;4845708;29;20456;-92
2020/12/27 11:32:33;;;;;;;7.60;6.30;;;1.70;99.90;;;;;;4842942;29;20593;-93
2020/12/27 11:35:01;;;;;;;9.50;6.70;;;1.70;99.90;;;;;;4845126;29;21203;-93
2020/12/27 11:37:27;;;;;;;7.60;5.70;;;1.80;99.90;;;;;;4846673;29;20312;-94
2020/12/27 11:39:53;;;;;;;8.37;5.90;;;1.80;99.90;;;;;;4844638;29;21141;-93
2020/12/27 11:42:18;;;;;;;7.47;5.80;;;1.80;99.90;;;;;;4843249;29;20208;-94
2020/12/27 11:44:44;;;;;;;5.70;4.60;;;1.80;99.90;;;;;;4862187;29;20255;-96
2020/12/27 11:47:10;;;;;;;6.23;5.07;;;1.80;99.90;;;;;;4849253;29;20198;-95
2020/12/27 11:49:36;;;;;;;5.80;4.87;;;1.80;99.90;;;;;;4854107;29;20198;-95
2020/12/27 11:52:01;;;;;;;6.17;5.27;;;1.80;99.90;;;;;;4853603;29;20197;-94
2020/12/27 11:54:27;;;;;;;6.33;5.30;;;1.70;99.90;;;;;;4845065;29;20584;-95
2020/12/27 11:56:56;;;;;;;5.40;4.80;;;1.70;99.90;;;;;;4845470;29;20258;-96
2020/12/27 11:59:22;;;;;;;10.83;5.00;;;1.90;99.90;;;;;;4851152;29;20205;-95
2020/12/27 12:01:48;;;;;;;5.47;4.60;;;1.90;99.90;;;;;;4858373;29;20459;-95
2020/12/27 12:04:14;;;;;;;4.80;4.03;;;2.00;99.90;;;;;;4858399;29;20532;-92
2020/12/27 12:06:40;;;;;;;5.50;4.70;;;2.00;99.90;;;;;;4843770;29;20193;-95
2020/12/27 12:09:06;;;;;;;4.97;4.27;;;2.10;99.90;;;;;;4842453;29;20455;-95
2020/12/27 12:11:36;;;;;;;8.07;4.60;;;2.20;99.90;;;;;;4844960;29;20971;-95
2020/12/27 12:14:02;;;;;;;5.57;4.20;;;2.30;99.90;;;;;;4845991;29;20199;-95
2020/12/27 12:16:29;;;;;;;6.07;4.40;;;2.30;99.90;;;;;;4845907;29;20462;-94
2020/12/27 12:19:00;;;;;;;5.53;4.43;;;2.30;99.90;;;;;;4845735;29;20542;-94
2020/12/27 12:21:27;;;;;;;6.30;4.10;;;2.30;99.90;;;;;;4838379;29;20456;-94
2020/12/27 12:23:53;;;;;;;5.20;4.30;;;2.20;99.90;;;;;;4845814;29;20590;-93
2020/12/27 12:26:24;;;;;;;4.60;3.40;;;2.20;99.90;;;;;;4840155;29;20487;-93
2020/12/27 12:28:51;;;;;;;3.40;3.10;;;2.20;99.90;;;;;;4845151;29;20469;-93
2020/12/27 12:31:18;;;;;;;5.30;4.13;;;2.10;99.90;;;;;;4845045;29;20503;-93
2020/12/27 12:33:45;;;;;;;6.10;3.60;;;2.10;99.90;;;;;;4848208;29;20502;-93
2020/12/27 12:36:19;;;;;;;5.77;4.17;;;2.10;99.90;;;;;;4847363;29;20476;-93
2020/12/27 12:38:45;;;;;;;4.30;3.60;;;2.20;99.90;;;;;;4846553;29;20496;-93
2020/12/27 12:41:12;;;;;;;5.00;3.63;;;2.30;99.90;;;;;;4845442;29;20562;-94
2020/12/27 12:43:42;;;;;;;6.23;3.70;;;2.30;99.90;;;;;;4846093;29;20457;-94
2020/12/27 12:46:09;;;;;;;3.43;2.87;;;2.30;99.90;;;;;;4849311;29;20477;-94
2020/12/27 12:48:35;;;;;;;5.70;4.20;;;2.30;99.90;;;;;;4848578;29;20471;-93
2020/12/27 12:51:05;;;;;;;4.03;3.63;;;2.30;99.90;;;;;;4848558;29;20498;-95
2020/12/27 12:53:34;;;;;;;4.20;3.80;;;2.40;99.90;;;;;;4847914;29;20436;-92
2020/12/27 12:56:04;;;;;;;3.03;2.70;;;2.50;99.90;;;;;;4850406;29;20466;-95
2020/12/27 12:58:31;;;;;;;5.40;4.33;;;2.40;99.90;;;;;;4851664;29;20427;-94
2020/12/27 13:01:19;;;;;;;4.10;3.63;;;2.40;99.90;;;;;;4852932;29;21017;-95